createdAt,value
2022-10-04T00:00:31.990Z,102364.09
2022-10-04T00:03:44.022Z,102353.59
2022-10-04T00:06:54.124Z,102350.09
2022-10-04T00:10:03.333Z,102338.72
2022-10-04T00:13:19.892Z,102323.81
2022-10-04T00:16:31.286Z,102322.97
2022-10-04T00:19:47.101Z,102320.38
2022-10-04T00:23:30.038Z,102341.31
2022-10-04T00:27:20.138Z,102336.03
2022-10-04T00:30:25.282Z,102324.69
2022-10-04T00:33:41.332Z,102326.44
2022-10-04T00:37:04.159Z,102324.66
2022-10-04T00:40:19.695Z,102329.03
2022-10-04T00:43:31.231Z,102330.75
2022-10-04T00:46:42.316Z,102332.47
2022-10-04T00:49:51.699Z,102327.28
2022-10-04T00:53:00.344Z,102322.00
2022-10-04T00:56:11.281Z,102324.66
2022-10-04T00:59:36.048Z,102329.91
2022-10-04T01:02:54.187Z,102335.13
2022-10-04T01:06:03.269Z,102324.63
2022-10-04T01:09:10.908Z,102319.38
2022-10-04T01:12:33.603Z,102306.28
2022-10-04T01:15:50.934Z,102296.72
2022-10-04T01:18:56.306Z,102296.75
2022-10-04T01:22:12.044Z,102294.13
2022-10-04T01:25:48.937Z,102279.28
2022-10-04T01:28:52.767Z,102276.66
2022-10-04T01:32:00.179Z,102278.38
2022-10-04T01:35:04.127Z,102280.13
2022-10-04T01:38:09.014Z,102271.41
2022-10-04T01:41:18.140Z,102273.13
2022-10-04T01:44:33.071Z,102280.09
2022-10-04T01:47:45.736Z,102279.25
2022-10-04T01:50:57.715Z,102274.88
2022-10-04T01:54:10.696Z,102264.31
2022-10-04T01:57:21.871Z,102262.50
2022-10-04T02:00:26.280Z,102255.53
2022-10-04T02:03:36.341Z,102251.19
2022-10-04T02:06:44.680Z,102256.41
2022-10-04T02:09:55.896Z,102259.91
2022-10-04T02:13:02.155Z,102252.94
2022-10-04T02:16:14.503Z,102251.22
2022-10-04T02:19:19.362Z,102253.00
2022-10-04T02:22:26.531Z,102242.56
2022-10-04T02:25:31.064Z,102251.25
2022-10-04T02:28:37.799Z,102243.38
2022-10-04T02:32:11.233Z,102239.91
2022-10-04T02:35:18.721Z,102237.22
2022-10-04T02:38:30.364Z,102232.88
2022-10-04T02:41:39.331Z,102225.00
2022-10-04T02:44:55.090Z,102226.75
2022-10-04T02:48:05.756Z,102229.50
2022-10-04T02:51:22.056Z,102218.09
2022-10-04T02:54:35.436Z,102221.63
2022-10-04T02:57:44.643Z,102213.84
2022-10-04T03:00:53.281Z,102202.56
2022-10-04T03:03:59.487Z,102204.38
2022-10-04T03:07:07.708Z,102207.88
2022-10-04T03:10:15.303Z,102202.63
2022-10-04T03:13:22.185Z,102205.25
2022-10-04T03:16:28.336Z,102200.91
2022-10-04T03:19:34.884Z,102195.72
2022-10-04T03:22:42.620Z,102196.63
2022-10-04T03:25:59.180Z,102187.03
2022-10-04T03:29:03.255Z,102190.53
2022-10-04T03:32:08.618Z,102185.34
2022-10-04T03:35:30.251Z,102184.50
2022-10-04T03:38:43.037Z,102185.38
2022-10-04T03:41:47.655Z,102193.25
2022-10-04T03:44:56.369Z,102188.00
2022-10-04T03:48:11.147Z,102187.13
2022-10-04T03:51:20.270Z,102189.72
2022-10-04T03:54:28.319Z,102181.81
2022-10-04T03:57:33.611Z,102185.31
2022-10-04T04:00:45.406Z,102188.81
2022-10-04T04:04:03.563Z,102184.41
2022-10-04T04:07:14.283Z,102185.16
2022-10-04T04:10:25.003Z,102187.81
2022-10-04T04:13:45.812Z,102191.34
2022-10-04T04:16:50.061Z,102192.19
2022-10-04T04:19:58.438Z,102196.47
2022-10-04T04:23:12.936Z,102196.50
2022-10-04T04:26:28.369Z,102195.56
2022-10-04T04:29:51.450Z,102198.22
2022-10-04T04:32:58.791Z,102191.25
2022-10-04T04:36:12.230Z,102190.44
2022-10-04T04:39:40.959Z,102186.13
2022-10-04T04:42:45.631Z,102190.44
2022-10-04T04:46:08.449Z,102187.84
2022-10-04T04:49:19.504Z,102173.91
2022-10-04T04:52:30.437Z,102179.00
2022-10-04T04:56:02.302Z,102172.09
2022-10-04T04:59:09.231Z,102167.69
2022-10-04T05:02:35.084Z,102165.97
2022-10-04T05:05:39.003Z,102159.91
2022-10-04T05:08:51.477Z,102169.50
2022-10-04T05:12:02.452Z,102165.09
2022-10-04T05:15:11.300Z,102162.50
2022-10-04T05:18:29.637Z,102166.81
2022-10-04T05:21:42.008Z,102167.69
2022-10-04T05:24:54.910Z,102165.06
2022-10-04T05:27:59.532Z,102159.91
2022-10-04T05:31:31.319Z,102168.56
2022-10-04T05:34:41.458Z,102165.16
2022-10-04T05:38:06.132Z,102174.84
2022-10-04T05:41:30.149Z,102167.88
2022-10-04T05:44:47.804Z,102172.22
2022-10-04T05:47:54.987Z,102175.75
2022-10-04T05:50:58.723Z,102173.97
2022-10-04T05:54:05.484Z,102171.34
2022-10-04T05:57:33.816Z,102168.78
2022-10-04T06:00:55.229Z,102169.59
2022-10-04T06:04:33.185Z,102168.75
2022-10-04T06:07:44.349Z,102160.84
2022-10-04T06:11:12.043Z,102157.38
2022-10-04T06:15:03.862Z,102165.22
2022-10-04T06:18:43.088Z,102163.44
2022-10-04T06:22:17.208Z,102167.78
2022-10-04T06:25:27.489Z,102167.78
2022-10-04T06:28:38.158Z,102157.25
2022-10-04T06:32:38.570Z,102165.97
2022-10-04T06:36:30.831Z,102159.00
2022-10-04T06:40:26.840Z,102152.91
2022-10-04T06:44:03.110Z,102161.59
2022-10-04T06:47:32.983Z,102154.56
2022-10-04T06:50:50.030Z,102153.66
2022-10-04T06:54:18.810Z,102155.19
2022-10-04T06:58:02.523Z,102155.97
2022-10-04T07:01:23.752Z,102157.69
2022-10-04T07:05:06.408Z,102164.63
2022-10-04T07:08:31.120Z,102163.59
2022-10-04T07:11:46.891Z,102168.75
2022-10-04T07:14:57.813Z,102175.59
2022-10-04T07:18:10.793Z,102167.63
2022-10-04T07:21:18.389Z,102177.97
2022-10-04T07:24:29.635Z,102184.91
2022-10-04T07:27:48.987Z,102180.38
2022-10-04T07:31:03.716Z,102187.38
2022-10-04T07:34:15.814Z,102183.84
2022-10-04T07:37:22.156Z,102184.66
2022-10-04T07:40:33.963Z,102190.59
2022-10-04T07:43:50.974Z,102196.63
2022-10-04T07:47:01.834Z,102185.19
2022-10-04T07:50:24.842Z,102181.63
2022-10-04T07:53:39.427Z,102185.03
2022-10-04T07:56:52.602Z,102178.69
2022-10-04T08:00:07.218Z,102169.00
2022-10-04T08:03:39.330Z,102158.38
2022-10-04T08:06:58.708Z,102151.78
2022-10-04T08:10:15.928Z,102137.69
2022-10-04T08:13:35.157Z,102145.50
2022-10-04T08:16:56.376Z,102136.44
2022-10-04T08:20:25.077Z,102132.72
2022-10-04T08:23:58.224Z,102137.44
2022-10-04T08:27:30.807Z,102125.97
2022-10-04T08:30:59.680Z,102124.66
2022-10-04T08:34:33.381Z,102120.03
2022-10-04T08:38:02.395Z,102117.13
2022-10-04T08:42:10.216Z,102104.94
2022-10-04T08:46:23.243Z,102093.97
2022-10-04T08:50:07.347Z,102095.03
2022-10-04T08:54:06.301Z,102095.91
2022-10-04T08:57:57.820Z,102091.47
2022-10-04T09:01:40.737Z,102088.50
2022-10-04T09:05:39.791Z,102090.03
2022-10-04T09:09:40.725Z,102079.94
2022-10-04T09:13:17.113Z,102076.03
2022-10-04T09:16:30.001Z,102071.81
2022-10-04T09:19:55.287Z,102068.59
2022-10-04T09:23:22.713Z,102057.94
2022-10-04T09:26:44.759Z,102063.88
2022-10-04T09:30:16.668Z,102058.75
2022-10-04T09:33:53.702Z,102051.56
2022-10-04T09:37:44.400Z,102055.97
2022-10-04T09:41:28.679Z,102049.88
2022-10-04T09:45:31.960Z,102047.88
2022-10-04T09:48:43.177Z,102053.13
2022-10-04T09:52:26.026Z,102051.38
2022-10-04T09:55:56.592Z,102053.63
2022-10-04T09:59:58.027Z,102052.69
2022-10-04T10:03:37.048Z,102045.59
2022-10-04T10:07:10.388Z,102030.38
2022-10-04T10:10:45.279Z,102036.59
2022-10-04T10:14:42.995Z,102033.50
2022-10-04T10:17:59.074Z,102035.03
2022-10-04T10:21:38.692Z,102033.88
2022-10-04T10:25:27.892Z,102030.94
2022-10-04T10:29:12.194Z,102023.59
2022-10-04T10:32:56.226Z,102029.25
2022-10-04T10:36:44.351Z,102020.88
2022-10-04T10:40:33.503Z,102022.56
2022-10-04T10:44:02.317Z,102015.34
2022-10-04T10:47:36.027Z,102018.63
2022-10-04T10:51:03.581Z,102021.06
2022-10-04T10:54:59.955Z,102025.09
2022-10-04T10:58:46.720Z,102026.81
2022-10-04T11:03:12.111Z,102024.00
2022-10-04T11:07:05.387Z,102017.22
2022-10-04T11:11:05.129Z,102018.75
2022-10-04T11:14:48.472Z,102023.09
2022-10-04T11:18:40.933Z,102011.78
2022-10-04T11:22:44.845Z,102002.03
2022-10-04T11:26:39.200Z,102002.34
2022-10-04T11:30:10.476Z,101995.03
2022-10-04T11:34:00.158Z,101995.34
2022-10-04T11:37:18.004Z,101983.38
2022-10-04T11:40:40.316Z,101982.78
2022-10-04T11:44:29.486Z,101979.13
2022-10-04T11:47:56.890Z,101980.97
2022-10-04T11:52:02.091Z,101963.28
2022-10-04T11:56:04.316Z,101959.06
2022-10-04T11:59:41.612Z,101954.47
2022-10-04T12:03:50.329Z,101946.75
2022-10-04T12:07:26.619Z,101940.63
2022-10-04T12:10:37.614Z,101936.41
2022-10-04T12:14:06.044Z,101929.38
2022-10-04T12:18:05.343Z,101926.94
2022-10-04T12:21:42.606Z,101931.84
2022-10-04T12:25:37.316Z,101930.00
2022-10-04T12:29:29.101Z,101935.16
2022-10-04T12:32:52.226Z,101933.63
2022-10-04T12:36:15.166Z,101926.00
2022-10-04T12:39:40.960Z,101926.34
2022-10-04T12:42:58.488Z,101923.69
2022-10-04T12:46:25.656Z,101926.41
2022-10-04T12:49:47.152Z,101921.56
2022-10-04T12:53:03.915Z,101913.22
2022-10-04T12:56:21.973Z,101904.00
2022-10-04T12:59:56.112Z,101908.03
2022-10-04T13:03:32.822Z,101906.56
2022-10-04T13:07:05.734Z,101904.84
2022-10-04T13:10:44.536Z,101884.31
2022-10-04T13:14:17.799Z,101894.25
2022-10-04T13:17:44.392Z,101882.38
2022-10-04T13:21:01.511Z,101877.88
2022-10-04T13:24:21.716Z,101876.09
2022-10-04T13:27:38.448Z,101870.06
2022-10-04T13:30:51.857Z,101859.53
2022-10-04T13:34:15.008Z,101851.84
2022-10-04T13:37:36.087Z,101849.56
2022-10-04T13:41:00.663Z,101854.59
2022-10-04T13:44:46.348Z,101841.19
2022-10-04T13:48:25.901Z,101849.28
2022-10-04T13:52:12.207Z,101830.22
2022-10-04T13:55:50.711Z,101827.63
2022-10-04T13:59:06.598Z,101816.75
2022-10-04T14:03:01.547Z,101825.34
2022-10-04T14:06:58.022Z,101822.53
2022-10-04T14:10:49.307Z,101826.19
2022-10-04T14:14:33.803Z,101815.59
2022-10-04T14:18:29.923Z,101825.63
2022-10-04T14:22:38.616Z,101820.19
2022-10-04T14:26:20.226Z,101825.34
2022-10-04T14:30:06.269Z,101832.72
2022-10-04T14:33:49.596Z,101828.13
2022-10-04T14:37:37.611Z,101825.78
2022-10-04T14:41:27.881Z,101832.31
2022-10-04T14:44:57.460Z,101824.41
2022-10-04T14:48:42.651Z,101817.50
2022-10-04T14:52:08.616Z,101801.75
2022-10-04T14:55:45.893Z,101795.69
2022-10-04T14:59:09.230Z,101783.16
2022-10-04T15:02:49.289Z,101793.50
2022-10-04T15:06:13.821Z,101795.53
2022-10-04T15:09:53.090Z,101805.09
2022-10-04T15:13:11.007Z,101792.06
2022-10-04T15:16:34.193Z,101799.03
2022-10-04T15:20:02.438Z,101812.22
2022-10-04T15:23:17.739Z,101818.72
2022-10-04T15:27:23.974Z,101816.38
2022-10-04T15:30:47.649Z,101815.97
2022-10-04T15:34:08.039Z,101798.44
2022-10-04T15:37:27.939Z,101801.19
2022-10-04T15:40:49.304Z,101795.81
2022-10-04T15:44:35.008Z,101795.19
2022-10-04T15:48:03.874Z,101789.66
2022-10-04T15:51:22.408Z,101789.31
2022-10-04T15:55:18.354Z,101784.50
2022-10-04T15:58:55.263Z,101782.03
2022-10-04T16:02:38.044Z,101782.72
2022-10-04T16:05:59.970Z,101785.81
2022-10-04T16:09:39.988Z,101798.09
2022-10-04T16:13:18.655Z,101792.91
2022-10-04T16:17:13.365Z,101781.00
2022-10-04T16:20:53.533Z,101779.63
2022-10-04T16:24:45.702Z,101775.34
2022-10-04T16:28:09.694Z,101774.72
2022-10-04T16:31:29.560Z,101777.84
2022-10-04T16:34:54.600Z,101776.34
2022-10-04T16:38:16.443Z,101778.47
2022-10-04T16:41:40.286Z,101783.41
2022-10-04T16:44:56.548Z,101776.84
2022-10-04T16:48:11.016Z,101769.25
2022-10-04T16:52:02.974Z,101767.97
2022-10-04T16:55:46.503Z,101767.44
2022-10-04T16:59:00.763Z,101763.22
2022-10-04T17:02:29.322Z,101776.72
2022-10-04T17:06:13.016Z,101771.44
2022-10-04T17:09:29.795Z,101782.44
2022-10-04T17:12:47.155Z,101782.00
2022-10-04T17:16:06.933Z,101782.72
2022-10-04T17:19:35.046Z,101775.91
2022-10-04T17:22:55.700Z,101781.47
2022-10-04T17:26:14.936Z,101784.44
2022-10-04T17:29:42.258Z,101782.94
2022-10-04T17:33:21.803Z,101786.81
2022-10-04T17:36:51.424Z,101786.88
2022-10-04T17:40:18.315Z,101786.25
2022-10-04T17:43:33.281Z,101787.41
2022-10-04T17:46:48.210Z,101783.38
2022-10-04T17:50:22.855Z,101790.53
2022-10-04T17:53:52.195Z,101802.16
2022-10-04T17:57:21.874Z,101806.75
2022-10-04T18:00:31.134Z,101804.25
2022-10-04T18:03:42.132Z,101806.03
2022-10-04T18:06:56.573Z,101807.00
2022-10-04T18:10:17.653Z,101800.97
2022-10-04T18:13:32.972Z,101798.53
2022-10-04T18:16:53.514Z,101798.81
2022-10-04T18:20:18.111Z,101793.00
2022-10-04T18:23:30.808Z,101795.53
2022-10-04T18:26:34.862Z,101788.81
2022-10-04T18:29:42.459Z,101791.72
2022-10-04T18:32:49.444Z,101786.25
2022-10-04T18:36:00.922Z,101779.31
2022-10-04T18:39:21.299Z,101769.59
2022-10-04T18:42:37.140Z,101763.25
2022-10-04T18:45:41.037Z,101778.59
2022-10-04T18:48:54.386Z,101782.41
2022-10-04T18:52:26.565Z,101772.84
2022-10-04T18:55:50.592Z,101795.63
2022-10-04T18:59:35.206Z,101812.22
2022-10-04T19:02:51.679Z,101820.97
2022-10-04T19:06:07.820Z,101825.41
2022-10-04T19:09:25.222Z,101839.50
2022-10-04T19:12:43.584Z,101845.72
2022-10-04T19:16:35.409Z,101823.81
2022-10-04T19:19:52.035Z,101825.38
2022-10-04T19:23:12.386Z,101822.06
2022-10-04T19:26:32.199Z,101799.25
2022-10-04T19:29:59.602Z,101796.09
2022-10-04T19:33:17.624Z,101791.53
2022-10-04T19:36:46.907Z,101791.91
2022-10-04T19:40:06.910Z,101790.31
2022-10-04T19:43:15.815Z,101794.69
2022-10-04T19:46:37.867Z,101794.66
2022-10-04T19:49:53.821Z,101783.47
2022-10-04T19:53:03.758Z,101787.19
2022-10-04T19:56:18.824Z,101803.00
2022-10-04T19:59:38.303Z,101795.84
2022-10-04T20:02:48.392Z,101795.03
2022-10-04T20:05:54.778Z,101811.81
2022-10-04T20:09:19.133Z,101824.09
2022-10-04T20:12:38.530Z,101833.56
2022-10-04T20:15:56.628Z,101809.75
2022-10-04T20:19:02.440Z,101806.09
2022-10-04T20:22:58.217Z,101793.97
2022-10-04T20:26:07.311Z,101791.31
2022-10-04T20:29:11.293Z,101787.75
2022-10-04T20:33:01.374Z,101765.69
2022-10-04T20:36:08.678Z,101752.56
2022-10-04T20:40:02.019Z,101725.28
2022-10-04T20:43:28.560Z,101723.44
2022-10-04T20:46:38.943Z,101725.81
2022-10-04T20:49:46.978Z,101735.44
2022-10-04T20:52:55.829Z,101741.34
2022-10-04T20:56:20.352Z,101734.28
2022-10-04T20:59:24.403Z,101740.31
2022-10-04T21:02:29.032Z,101750.81
2022-10-04T21:05:34.066Z,101742.03
2022-10-04T21:08:38.897Z,101751.75
2022-10-04T21:11:47.600Z,101762.28
2022-10-04T21:15:05.944Z,101770.44
2022-10-04T21:18:11.018Z,101773.97
2022-10-04T21:21:20.913Z,101771.28
2022-10-04T21:24:37.780Z,101776.59
2022-10-04T21:27:43.536Z,101773.03
2022-10-04T21:30:47.195Z,101773.06
2022-10-04T21:33:50.817Z,101764.25
2022-10-04T21:36:55.750Z,101761.59
2022-10-04T21:39:59.600Z,101758.91
2022-10-04T21:43:03.182Z,101750.16
2022-10-04T21:46:06.989Z,101759.00
2022-10-04T21:49:10.679Z,101760.81
2022-10-04T21:52:17.538Z,101759.16
2022-10-04T21:55:21.168Z,101758.31
2022-10-04T21:58:24.781Z,101763.56
2022-10-04T22:01:28.538Z,101764.38
2022-10-04T22:04:32.219Z,101767.84
2022-10-04T22:07:37.248Z,101774.81
2022-10-04T22:10:41.158Z,101766.16
2022-10-04T22:13:44.819Z,101769.72
2022-10-04T22:16:49.237Z,101762.69
2022-10-04T22:19:53.848Z,101760.22
2022-10-04T22:23:00.351Z,101747.94
2022-10-04T22:26:10.618Z,101741.78
2022-10-04T22:29:15.807Z,101736.69
2022-10-04T22:32:26.160Z,101732.22
2022-10-04T22:35:34.715Z,101730.47
2022-10-04T22:38:40.064Z,101741.03
2022-10-04T22:41:47.432Z,101736.69
2022-10-04T22:44:51.088Z,101735.84
2022-10-04T22:47:58.796Z,101730.50
2022-10-04T22:51:02.431Z,101727.09
2022-10-04T22:54:13.119Z,101726.22
2022-10-04T22:57:19.000Z,101729.69
2022-10-04T23:00:22.588Z,101722.78
2022-10-04T23:03:31.624Z,101737.66
2022-10-04T23:06:35.285Z,101732.41
2022-10-04T23:09:41.636Z,101728.84
2022-10-04T23:12:47.586Z,101722.59
2022-10-04T23:15:51.610Z,101721.81
2022-10-04T23:19:03.435Z,101713.06
2022-10-04T23:22:15.876Z,101723.59
2022-10-04T23:25:29.617Z,101725.38
2022-10-04T23:28:33.512Z,101720.16
2022-10-04T23:31:38.823Z,101715.81
2022-10-04T23:34:47.114Z,101715.88
2022-10-04T23:37:51.666Z,101708.06
2022-10-04T23:40:56.752Z,101713.41
2022-10-04T23:44:00.375Z,101702.81
2022-10-04T23:47:04.866Z,101700.19
2022-10-04T23:50:26.963Z,101704.59
2022-10-04T23:53:34.118Z,101706.38
2022-10-04T23:56:39.061Z,101704.53
2022-10-04T23:59:42.713Z,101702.72
